sensor_id;sensor_type;location;lat;lon;timestamp;pressure;altitude;pressure_sealevel;temperature;humidity
18509;BME280;9383;50.928;12.116;2023-10-31T00:01:06;96893.69;;;12.23;100.00
18509;BME280;9383;50.928;12.116;2023-10-31T00:03:33;96901.66;;;12.23;100.00
18509;BME280;9383;50.928;12.116;2023-10-31T00:06:00;96892.84;;;12.22;100.00
18509;BME280;9383;50.928;12.116;2023-10-31T00:08:27;96883.06;;;12.23;100.00
18509;BME280;9383;50.928;12.116;2023-10-31T00:10:54;96889.34;;;12.22;100.00
18509;BME280;9383;50.928;12.116;2023-10-31T00:13:21;96884.13;;;12.20;100.00
18509;BME280;9383;50.928;12.116;2023-10-31T00:15:48;96891.13;;;12.21;100.00
18509;BME280;9383;50.928;12.116;2023-10-31T00:18:14;96888.63;;;12.20;100.00
18509;BME280;9383;50.928;12.116;2023-10-31T00:20:41;96890.41;;;12.19;100.00
18509;BME280;9383;50.928;12.116;2023-10-31T00:23:09;96896.59;;;12.20;100.00
18509;BME280;9383;50.928;12.116;2023-10-31T00:25:35;96895.72;;;12.19;100.00
18509;BME280;9383;50.928;12.116;2023-10-31T00:28:02;96887.75;;;12.19;100.00
18509;BME280;9383;50.928;12.116;2023-10-31T00:30:30;96881.59;;;12.19;100.00
18509;BME280;9383;50.928;12.116;2023-10-31T00:32:56;96889.56;;;12.19;100.00
18509;BME280;9383;50.928;12.116;2023-10-31T00:35:23;96896.69;;;12.18;100.00
18509;BME280;9383;50.928;12.116;2023-10-31T00:37:50;96887.75;;;12.19;100.00
18509;BME280;9383;50.928;12.116;2023-10-31T00:40:17;96898.38;;;12.19;100.00
18509;BME280;9383;50.928;12.116;2023-10-31T00:42:44;96899.34;;;12.18;100.00
18509;BME280;9383;50.928;12.116;2023-10-31T00:45:11;96901.03;;;12.19;100.00
18509;BME280;9383;50.928;12.116;2023-10-31T00:47:38;96889.56;;;12.19;100.00
18509;BME280;9383;50.928;12.116;2023-10-31T00:50:05;96897.53;;;12.19;100.00
18509;BME280;9383;50.928;12.116;2023-10-31T00:52:32;96889.56;;;12.19;100.00
18509;BME280;9383;50.928;12.116;2023-10-31T00:54:59;96894.75;;;12.20;100.00
18509;BME280;9383;50.928;12.116;2023-10-31T00:57:28;96894.75;;;12.20;100.00
18509;BME280;9383;50.928;12.116;2023-10-31T00:59:56;96890.41;;;12.19;100.00
18509;BME280;9383;50.928;12.116;2023-10-31T01:02:22;96896.59;;;12.20;100.00
18509;BME280;9383;50.928;12.116;2023-10-31T01:04:49;96884.13;;;12.20;100.00
18509;BME280;9383;50.928;12.116;2023-10-31T01:07:16;96876.16;;;12.20;100.00
18509;BME280;9383;50.928;12.116;2023-10-31T01:09:44;96876.16;;;12.20;100.00
18509;BME280;9383;50.928;12.116;2023-10-31T01:12:11;96880.50;;;12.21;100.00
18509;BME280;9383;50.928;12.116;2023-10-31T01:14:37;96873.50;;;12.20;100.00
18509;BME280;9383;50.928;12.116;2023-10-31T01:17:04;96863.84;;;12.19;100.00
18509;BME280;9383;50.928;12.116;2023-10-31T01:19:32;96860.22;;;12.20;100.00
18509;BME280;9383;50.928;12.116;2023-10-31T01:21:59;96862.06;;;12.20;100.00
18509;BME280;9383;50.928;12.116;2023-10-31T01:24:27;96866.50;;;12.19;100.00
18509;BME280;9383;50.928;12.116;2023-10-31T01:26:53;96875.44;;;12.18;100.00
18509;BME280;9383;50.928;12.116;2023-10-31T01:29:20;96885.97;;;12.20;100.00
18509;BME280;9383;50.928;12.116;2023-10-31T01:31:47;96887.75;;;12.19;100.00
18509;BME280;9383;50.928;12.116;2023-10-31T01:34:14;96891.38;;;12.18;100.00
18509;BME280;9383;50.928;12.116;2023-10-31T01:36:41;96878.09;;;12.18;100.00
18509;BME280;9383;50.928;12.116;2023-10-31T01:39:09;96864.81;;;12.18;100.00
18509;BME280;9383;50.928;12.116;2023-10-31T01:41:36;96867.56;;;12.17;100.00
18509;BME280;9383;50.928;12.116;2023-10-31T01:44:03;96871.94;;;12.18;100.00
18509;BME280;9383;50.928;12.116;2023-10-31T01:46:30;96874.72;;;12.16;100.00
18509;BME280;9383;50.928;12.116;2023-10-31T01:48:57;96875.53;;;12.17;100.00
18509;BME280;9383;50.928;12.116;2023-10-31T01:51:26;96878.19;;;12.17;100.00
18509;BME280;9383;50.928;12.116;2023-10-31T01:53:55;96874.72;;;12.16;100.00
18509;BME280;9383;50.928;12.116;2023-10-31T01:56:22;96877.38;;;12.16;100.00
18509;BME280;9383;50.928;12.116;2023-10-31T01:59:00;96877.38;;;12.16;100.00
18509;BME280;9383;50.928;12.116;2023-10-31T02:01:30;96879.16;;;12.16;100.00
18509;BME280;9383;50.928;12.116;2023-10-31T02:03:57;96883.66;;;12.15;100.00
18509;BME280;9383;50.928;12.116;2023-10-31T02:06:25;96877.47;;;12.15;100.00
18509;BME280;9383;50.928;12.116;2023-10-31T02:08:52;96881.00;;;12.15;100.00
18509;BME280;9383;50.928;12.116;2023-10-31T02:11:19;96881.81;;;12.16;100.00
18509;BME280;9383;50.928;12.116;2023-10-31T02:13:45;96872.16;;;12.15;100.00
18509;BME280;9383;50.928;12.116;2023-10-31T02:16:29;96880.13;;;12.15;100.00
18509;BME280;9383;50.928;12.116;2023-10-31T02:18:55;96884.63;;;12.14;100.00
18509;BME280;9383;50.928;12.116;2023-10-31T02:21:22;96879.28;;;12.14;100.00
18509;BME280;9383;50.928;12.116;2023-10-31T02:23:59;96880.13;;;12.15;100.00
18509;BME280;9383;50.928;12.116;2023-10-31T02:26:30;96885.44;;;12.15;100.00
18509;BME280;9383;50.928;12.116;2023-10-31T02:28:57;96881.00;;;12.15;100.00
18509;BME280;9383;50.928;12.116;2023-10-31T02:31:24;96883.75;;;12.14;100.00
18509;BME280;9383;50.928;12.116;2023-10-31T02:33:52;96887.25;;;12.14;100.00
18509;BME280;9383;50.928;12.116;2023-10-31T02:36:19;96882.28;;;12.09;100.00
18509;BME280;9383;50.928;12.116;2023-10-31T02:38:47;96883.75;;;12.14;100.00
18509;BME280;9383;50.928;12.116;2023-10-31T02:41:14;96882.78;;;12.15;100.00
18509;BME280;9383;50.928;12.116;2023-10-31T02:43:42;96874.00;;;12.14;100.00
18509;BME280;9383;50.928;12.116;2023-10-31T02:46:08;96868.69;;;12.14;100.00
18509;BME280;9383;50.928;12.116;2023-10-31T02:48:38;96869.59;;;12.13;100.00
18509;BME280;9383;50.928;12.116;2023-10-31T02:51:07;96870.56;;;12.12;100.00
18509;BME280;9383;50.928;12.116;2023-10-31T02:53:34;96864.44;;;12.12;100.00
18509;BME280;9383;50.928;12.116;2023-10-31T02:56:02;96870.56;;;12.12;100.00
18509;BME280;9383;50.928;12.116;2023-10-31T02:58:29;96881.34;;;12.10;100.00
18509;BME280;9383;50.928;12.116;2023-10-31T03:00:56;96883.13;;;12.10;100.00
18509;BME280;9383;50.928;12.116;2023-10-31T03:03:24;96881.44;;;12.09;100.00
18509;BME280;9383;50.928;12.116;2023-10-31T03:05:51;96880.72;;;12.07;100.00
18509;BME280;9383;50.928;12.116;2023-10-31T03:08:18;96886.88;;;12.07;100.00
18509;BME280;9383;50.928;12.116;2023-10-31T03:10:49;96887.81;;;12.06;100.00
18509;BME280;9383;50.928;12.116;2023-10-31T03:13:19;96879.97;;;12.05;100.00
18509;BME280;9383;50.928;12.116;2023-10-31T03:15:46;96887.09;;;12.04;100.00
18509;BME280;9383;50.928;12.116;2023-10-31T03:18:14;96892.53;;;12.03;100.00
18509;BME280;9383;50.928;12.116;2023-10-31T03:20:46;96881.91;;;12.03;100.00
18509;BME280;9383;50.928;12.116;2023-10-31T03:23:13;96896.16;;;12.02;100.00
18509;BME280;9383;50.928;12.116;2023-10-31T03:25:40;96889.06;;;12.01;100.00
18509;BME280;9383;50.928;12.116;2023-10-31T03:28:19;96887.38;;;12.00;100.00
18509;BME280;9383;50.928;12.116;2023-10-31T03:31:06;96893.66;;;11.99;100.00
18509;BME280;9383;50.928;12.116;2023-10-31T03:33:33;96895.34;;;12.00;100.00
18509;BME280;9383;50.928;12.116;2023-10-31T03:35:59;96899.94;;;11.98;100.00
18509;BME280;9383;50.928;12.116;2023-10-31T03:38:28;96891.97;;;11.98;100.00
18509;BME280;9383;50.928;12.116;2023-10-31T03:40:55;96894.63;;;11.98;100.00
18509;BME280;9383;50.928;12.116;2023-10-31T03:43:22;96891.97;;;11.98;100.00
18509;BME280;9383;50.928;12.116;2023-10-31T03:45:51;96906.19;;;11.96;100.00
18509;BME280;9383;50.928;12.116;2023-10-31T03:48:18;96893.78;;;11.97;100.00
18509;BME280;9383;50.928;12.116;2023-10-31T03:50:46;96904.50;;;11.95;100.00
18509;BME280;9383;50.928;12.116;2023-10-31T03:53:13;96900.06;;;11.96;100.00
18509;BME280;9383;50.928;12.116;2023-10-31T03:55:40;96897.28;;;11.98;100.00
18509;BME280;9383;50.928;12.116;2023-10-31T03:58:06;96897.41;;;11.96;100.00
18509;BME280;9383;50.928;12.116;2023-10-31T04:00:34;96906.19;;;11.96;100.00
18509;BME280;9383;50.928;12.116;2023-10-31T04:03:01;96904.41;;;11.97;100.00
18509;BME280;9383;50.928;12.116;2023-10-31T04:05:29;96901.75;;;11.97;100.00
18509;BME280;9383;50.928;12.116;2023-10-31T04:07:56;96898.25;;;11.96;100.00
18509;BME280;9383;50.928;12.116;2023-10-31T04:10:23;96899.09;;;11.97;100.00
18509;BME280;9383;50.928;12.116;2023-10-31T04:12:49;96908.75;;;11.98;100.00
18509;BME280;9383;50.928;12.116;2023-10-31T04:15:16;96909.72;;;11.97;100.00
18509;BME280;9383;50.928;12.116;2023-10-31T04:17:42;96906.19;;;11.96;100.00
18509;BME280;9383;50.928;12.116;2023-10-31T04:20:09;96896.44;;;11.97;100.00
18509;BME280;9383;50.928;12.116;2023-10-31T04:22:36;96912.38;;;11.97;100.00
18509;BME280;9383;50.928;12.116;2023-10-31T04:25:04;96912.38;;;11.97;100.00
18509;BME280;9383;50.928;12.116;2023-10-31T04:27:31;96919.47;;;11.96;100.00
18509;BME280;9383;50.928;12.116;2023-10-31T04:29:58;96920.34;;;11.97;100.00
18509;BME280;9383;50.928;12.116;2023-10-31T04:32:24;96930.97;;;11.97;100.00
18509;BME280;9383;50.928;12.116;2023-10-31T04:34:51;96931.78;;;11.98;100.00
18509;BME280;9383;50.928;12.116;2023-10-31T04:37:18;96935.41;;;11.96;100.00
18509;BME280;9383;50.928;12.116;2023-10-31T04:39:45;96937.09;;;11.98;100.00
18509;BME280;9383;50.928;12.116;2023-10-31T04:42:12;96940.72;;;11.96;100.00
18509;BME280;9383;50.928;12.116;2023-10-31T04:44:38;96947.72;;;11.98;100.00
18509;BME280;9383;50.928;12.116;2023-10-31T04:47:05;96948.59;;;11.98;100.00
18509;BME280;9383;50.928;12.116;2023-10-31T04:49:35;96947.63;;;11.99;100.00
18509;BME280;9383;50.928;12.116;2023-10-31T04:52:03;96949.41;;;11.99;100.00
18509;BME280;9383;50.928;12.116;2023-10-31T04:54:30;96939.53;;;12.01;100.00
18509;BME280;9383;50.928;12.116;2023-10-31T04:56:56;96938.78;;;11.99;100.00
18509;BME280;9383;50.928;12.116;2023-10-31T04:59:23;96951.97;;;12.00;100.00
18509;BME280;9383;50.928;12.116;2023-10-31T05:01:50;96951.13;;;12.00;100.00
18509;BME280;9383;50.928;12.116;2023-10-31T05:04:40;96954.72;;;11.99;100.00
18509;BME280;9383;50.928;12.116;2023-10-31T05:07:07;96945.94;;;11.98;100.00
18509;BME280;9383;50.928;12.116;2023-10-31T05:09:34;96948.59;;;11.98;100.00
18509;BME280;9383;50.928;12.116;2023-10-31T05:12:02;96957.38;;;11.99;100.00
18509;BME280;9383;50.928;12.116;2023-10-31T05:14:29;96959.22;;;11.98;100.00
18509;BME280;9383;50.928;12.116;2023-10-31T05:16:55;96953.03;;;11.98;100.00
18509;BME280;9383;50.928;12.116;2023-10-31T05:19:22;96952.22;;;11.97;100.00
18509;BME280;9383;50.928;12.116;2023-10-31T05:21:48;96961.13;;;11.96;100.00
18509;BME280;9383;50.928;12.116;2023-10-31T05:24:15;96968.97;;;11.98;100.00
18509;BME280;9383;50.928;12.116;2023-10-31T05:26:41;96971.63;;;11.98;100.00
18509;BME280;9383;50.928;12.116;2023-10-31T05:29:10;96975.25;;;11.96;100.00
18509;BME280;9383;50.928;12.116;2023-10-31T05:31:38;96982.38;;;11.96;100.00
18509;BME280;9383;50.928;12.116;2023-10-31T05:34:05;96982.38;;;11.96;100.00
18509;BME280;9383;50.928;12.116;2023-10-31T05:36:49;96976.19;;;11.95;100.00
18509;BME280;9383;50.928;12.116;2023-10-31T05:39:15;96979.81;;;11.94;100.00
18509;BME280;9383;50.928;12.116;2023-10-31T05:41:42;96984.63;;;11.89;100.00
18509;BME280;9383;50.928;12.116;2023-10-31T05:44:09;96998.00;;;11.88;100.00
18509;BME280;9383;50.928;12.116;2023-10-31T05:46:39;97000.88;;;11.85;100.00
18509;BME280;9383;50.928;12.116;2023-10-31T05:49:08;97007.25;;;11.82;100.00
18509;BME280;9383;50.928;12.116;2023-10-31T05:51:35;97010.13;;;11.79;100.00
18509;BME280;9383;50.928;12.116;2023-10-31T05:54:02;97005.03;;;11.76;100.00
18509;BME280;9383;50.928;12.116;2023-10-31T05:56:29;97007.91;;;11.73;100.00
18509;BME280;9383;50.928;12.116;2023-10-31T05:58:56;97019.47;;;11.72;100.00
18509;BME280;9383;50.928;12.116;2023-10-31T06:01:23;97023.31;;;11.67;100.00
18509;BME280;9383;50.928;12.116;2023-10-31T06:03:49;97033.28;;;11.64;100.00
18509;BME280;9383;50.928;12.116;2023-10-31T06:06:16;97045.91;;;11.60;100.00
18509;BME280;9383;50.928;12.116;2023-10-31T06:08:43;97043.47;;;11.57;100.00
18509;BME280;9383;50.928;12.116;2023-10-31T06:11:09;97050.78;;;11.53;100.00
18509;BME280;9383;50.928;12.116;2023-10-31T06:13:38;97052.81;;;11.50;100.00
18509;BME280;9383;50.928;12.116;2023-10-31T06:16:05;97046.75;;;11.48;100.00
18509;BME280;9383;50.928;12.116;2023-10-31T06:18:32;97057.81;;;11.42;100.00
18509;BME280;9383;50.928;12.116;2023-10-31T06:20:59;97069.47;;;11.39;100.00
18509;BME280;9383;50.928;12.116;2023-10-31T06:23:25;97084.75;;;11.35;100.00
18509;BME280;9383;50.928;12.116;2023-10-31T06:25:53;97088.34;;;11.34;100.00
18509;BME280;9383;50.928;12.116;2023-10-31T06:28:19;97087.72;;;11.31;100.00
18509;BME280;9383;50.928;12.116;2023-10-31T06:30:46;97088.88;;;11.26;100.00
18509;BME280;9383;50.928;12.116;2023-10-31T06:33:13;97089.19;;;11.22;100.00
18509;BME280;9383;50.928;12.116;2023-10-31T06:35:40;97105.31;;;11.19;100.00
18509;BME280;9383;50.928;12.116;2023-10-31T06:38:06;97112.63;;;11.15;100.00
18509;BME280;9383;50.928;12.116;2023-10-31T06:40:33;97116.34;;;11.13;100.00
18509;BME280;9383;50.928;12.116;2023-10-31T06:43:01;97118.22;;;11.10;100.00
18509;BME280;9383;50.928;12.116;2023-10-31T06:45:28;97112.31;;;11.07;100.00
18509;BME280;9383;50.928;12.116;2023-10-31T06:47:55;97113.44;;;11.03;100.00
18509;BME280;9383;50.928;12.116;2023-10-31T06:50:21;97120.56;;;11.02;100.00
18509;BME280;9383;50.928;12.116;2023-10-31T06:52:49;97126.91;;;11.00;100.00
18509;BME280;9383;50.928;12.116;2023-10-31T06:55:15;97134.94;;;10.98;100.00
18509;BME280;9383;50.928;12.116;2023-10-31T06:57:43;97131.69;;;10.94;100.00
18509;BME280;9383;50.928;12.116;2023-10-31T07:00:11;97141.41;;;10.94;100.00
18509;BME280;9383;50.928;12.116;2023-10-31T07:02:38;97139.94;;;10.90;100.00
18509;BME280;9383;50.928;12.116;2023-10-31T07:05:05;97139.19;;;10.88;100.00
18509;BME280;9383;50.928;12.116;2023-10-31T07:07:32;97146.19;;;10.89;100.00
18509;BME280;9383;50.928;12.116;2023-10-31T07:09:59;97149.78;;;10.88;100.00
18509;BME280;9383;50.928;12.116;2023-10-31T07:12:26;97155.81;;;10.90;100.00
18509;BME280;9383;50.928;12.116;2023-10-31T07:14:52;97154.88;;;10.91;100.00
18509;BME280;9383;50.928;12.116;2023-10-31T07:17:19;97169.75;;;10.93;100.00
18509;BME280;9383;50.928;12.116;2023-10-31T07:19:46;97173.97;;;10.96;100.00
18509;BME280;9383;50.928;12.116;2023-10-31T07:22:13;97180.88;;;10.98;100.00
18509;BME280;9383;50.928;12.116;2023-10-31T07:24:40;97184.19;;;11.02;100.00
18509;BME280;9383;50.928;12.116;2023-10-31T07:27:09;97184.81;;;11.06;100.00
18509;BME280;9383;50.928;12.116;2023-10-31T07:29:39;97187.16;;;11.10;100.00
18509;BME280;9383;50.928;12.116;2023-10-31T07:32:10;97196.66;;;11.15;100.00
18509;BME280;9383;50.928;12.116;2023-10-31T07:34:40;97196.34;;;11.19;100.00
18509;BME280;9383;50.928;12.116;2023-10-31T07:37:06;97204.84;;;11.24;100.00
18509;BME280;9383;50.928;12.116;2023-10-31T07:39:33;97209.94;;;11.28;100.00
18509;BME280;9383;50.928;12.116;2023-10-31T07:42:01;97207.94;;;11.31;100.00
18509;BME280;9383;50.928;12.116;2023-10-31T07:44:28;97212.06;;;11.35;100.00
18509;BME280;9383;50.928;12.116;2023-10-31T07:46:55;97207.50;;;11.37;100.00
18509;BME280;9383;50.928;12.116;2023-10-31T07:49:22;97210.00;;;11.40;100.00
18509;BME280;9383;50.928;12.116;2023-10-31T07:51:49;97208.00;;;11.44;100.00
18509;BME280;9383;50.928;12.116;2023-10-31T07:54:16;97213.91;;;11.48;100.00
18509;BME280;9383;50.928;12.116;2023-10-31T07:56:43;97220.75;;;11.52;100.00
18509;BME280;9383;50.928;12.116;2023-10-31T07:59:10;97217.88;;;11.55;100.00
18509;BME280;9383;50.928;12.116;2023-10-31T08:01:37;97213.97;;;11.61;100.00
18509;BME280;9383;50.928;12.116;2023-10-31T08:04:04;97224.28;;;11.65;100.00
18509;BME280;9383;50.928;12.116;2023-10-31T08:06:31;97232.03;;;11.68;100.00
18509;BME280;9383;50.928;12.116;2023-10-31T08:08:58;97227.88;;;11.77;100.00
18509;BME280;9383;50.928;12.116;2023-10-31T08:11:29;97238.72;;;11.87;100.00
18509;BME280;9383;50.928;12.116;2023-10-31T08:13:56;97224.09;;;11.94;100.00
18509;BME280;9383;50.928;12.116;2023-10-31T08:16:22;97245.91;;;12.13;100.00
18509;BME280;9383;50.928;12.116;2023-10-31T08:18:49;97240.72;;;12.24;100.00
18509;BME280;9383;50.928;12.116;2023-10-31T08:21:16;97242.59;;;12.35;100.00
18509;BME280;9383;50.928;12.116;2023-10-31T08:23:43;97247.06;;;12.47;100.00
18509;BME280;9383;50.928;12.116;2023-10-31T08:26:13;97255.13;;;12.59;98.70
18509;BME280;9383;50.928;12.116;2023-10-31T08:28:41;97255.31;;;12.69;98.44
18509;BME280;9383;50.928;12.116;2023-10-31T08:31:07;97252.03;;;12.78;96.24
18509;BME280;9383;50.928;12.116;2023-10-31T08:33:34;97258.63;;;12.85;95.56
18509;BME280;9383;50.928;12.116;2023-10-31T08:36:01;97262.50;;;12.92;95.05
18509;BME280;9383;50.928;12.116;2023-10-31T08:38:28;97270.16;;;12.97;93.58
18509;BME280;9383;50.928;12.116;2023-10-31T08:40:55;97272.72;;;12.99;91.58
18509;BME280;9383;50.928;12.116;2023-10-31T08:43:22;97271.63;;;13.01;90.97
18509;BME280;9383;50.928;12.116;2023-10-31T08:45:49;97268.66;;;13.06;91.13
18509;BME280;9383;50.928;12.116;2023-10-31T08:48:15;97268.31;;;13.11;91.59
18509;BME280;9383;50.928;12.116;2023-10-31T08:50:42;97275.97;;;13.15;91.71
18509;BME280;9383;50.928;12.116;2023-10-31T08:53:11;97277.34;;;13.21;91.83
18509;BME280;9383;50.928;12.116;2023-10-31T08:55:38;97271.38;;;13.17;90.01
18509;BME280;9383;50.928;12.116;2023-10-31T08:58:05;97281.53;;;13.12;87.98
18509;BME280;9383;50.928;12.116;2023-10-31T09:00:32;97282.25;;;13.14;89.15
18509;BME280;9383;50.928;12.116;2023-10-31T09:02:58;97281.19;;;13.17;89.66
18509;BME280;9383;50.928;12.116;2023-10-31T09:05:25;97286.50;;;13.17;89.50
18509;BME280;9383;50.928;12.116;2023-10-31T09:07:52;97272.25;;;13.18;89.91
18509;BME280;9383;50.928;12.116;2023-10-31T09:10:19;97276.59;;;13.19;89.30
18509;BME280;9383;50.928;12.116;2023-10-31T09:12:45;97278.81;;;13.25;89.64
18509;BME280;9383;50.928;12.116;2023-10-31T09:15:13;97278.81;;;13.25;89.36
18509;BME280;9383;50.928;12.116;2023-10-31T09:17:57;97288.28;;;13.29;89.28
18509;BME280;9383;50.928;12.116;2023-10-31T09:20:24;97300.63;;;13.30;88.15
18509;BME280;9383;50.928;12.116;2023-10-31T09:22:51;97312.22;;;13.29;87.51
18509;BME280;9383;50.928;12.116;2023-10-31T09:25:17;97309.56;;;13.29;87.77
18509;BME280;9383;50.928;12.116;2023-10-31T09:27:44;97308.59;;;13.30;87.43
18509;BME280;9383;50.928;12.116;2023-10-31T09:30:11;97313.06;;;13.30;87.06
18509;BME280;9383;50.928;12.116;2023-10-31T09:32:38;97296.25;;;13.29;87.26
18509;BME280;9383;50.928;12.116;2023-10-31T09:35:05;97312.66;;;13.23;86.11
18509;BME280;9383;50.928;12.116;2023-10-31T09:37:34;97312.03;;;13.19;85.64
18509;BME280;9383;50.928;12.116;2023-10-31T09:40:01;97306.53;;;13.09;83.42
18509;BME280;9383;50.928;12.116;2023-10-31T09:42:28;97300.25;;;13.11;84.76
18509;BME280;9383;50.928;12.116;2023-10-31T09:44:57;97306.53;;;13.09;85.18
18509;BME280;9383;50.928;12.116;2023-10-31T09:47:25;97297.47;;;13.12;85.59
18509;BME280;9383;50.928;12.116;2023-10-31T09:49:51;97284.06;;;13.14;85.29
18509;BME280;9383;50.928;12.116;2023-10-31T09:52:20;97290.88;;;13.18;85.71
18509;BME280;9383;50.928;12.116;2023-10-31T09:54:49;97295.00;;;13.22;86.16
18509;BME280;9383;50.928;12.116;2023-10-31T09:57:18;97285.81;;;13.26;86.15
18509;BME280;9383;50.928;12.116;2023-10-31T09:59:45;97283.47;;;13.34;86.37
18509;BME280;9383;50.928;12.116;2023-10-31T10:02:12;97282.91;;;13.42;86.01
18509;BME280;9383;50.928;12.116;2023-10-31T10:04:39;97290.34;;;13.50;85.81
18509;BME280;9383;50.928;12.116;2023-10-31T10:07:06;97295.22;;;13.56;83.97
18509;BME280;9383;50.928;12.116;2023-10-31T10:09:33;97300.09;;;13.62;82.85
18509;BME280;9383;50.928;12.116;2023-10-31T10:12:00;97302.31;;;13.69;82.67
18509;BME280;9383;50.928;12.116;2023-10-31T10:14:27;97291.41;;;13.72;82.04
18509;BME280;9383;50.928;12.116;2023-10-31T10:17:00;97290.13;;;13.77;81.80
18509;BME280;9383;50.928;12.116;2023-10-31T10:19:32;97274.75;;;13.81;80.28
18509;BME280;9383;50.928;12.116;2023-10-31T10:21:59;97270.06;;;13.85;80.59
18509;BME280;9383;50.928;12.116;2023-10-31T10:24:26;97284.94;;;13.87;78.67
18509;BME280;9383;50.928;12.116;2023-10-31T10:26:53;97278.66;;;13.88;77.86
18509;BME280;9383;50.928;12.116;2023-10-31T10:29:20;97281.69;;;13.95;78.34
18509;BME280;9383;50.928;12.116;2023-10-31T10:31:48;97261.25;;;13.96;77.38
18509;BME280;9383;50.928;12.116;2023-10-31T10:34:16;97283.63;;;13.93;76.15
18509;BME280;9383;50.928;12.116;2023-10-31T10:36:47;97284.94;;;13.87;74.33
18509;BME280;9383;50.928;12.116;2023-10-31T10:39:20;97295.38;;;13.90;76.18
18509;BME280;9383;50.928;12.116;2023-10-31T10:41:55;97286.91;;;13.97;77.29
18509;BME280;9383;50.928;12.116;2023-10-31T10:44:35;97283.19;;;13.99;76.63
18509;BME280;9383;50.928;12.116;2023-10-31T10:47:04;97278.56;;;14.01;76.26
18509;BME280;9383;50.928;12.116;2023-10-31T10:49:37;97293.09;;;13.97;75.37
18509;BME280;9383;50.928;12.116;2023-10-31T10:52:16;97286.81;;;13.98;76.06
18509;BME280;9383;50.928;12.116;2023-10-31T10:55:19;97291.56;;;14.06;76.77
18509;BME280;9383;50.928;12.116;2023-10-31T10:58:00;97300.56;;;14.16;76.17
18509;BME280;9383;50.928;12.116;2023-10-31T11:00:27;97297.16;;;14.26;76.11
18509;BME280;9383;50.928;12.116;2023-10-31T11:02:56;97302.50;;;14.26;74.29
18509;BME280;9383;50.928;12.116;2023-10-31T11:05:26;97303.84;;;14.31;75.36
18509;BME280;9383;50.928;12.116;2023-10-31T11:07:53;97320.44;;;14.35;75.56
18509;BME280;9383;50.928;12.116;2023-10-31T11:10:24;97313.88;;;14.28;72.34
18509;BME280;9383;50.928;12.116;2023-10-31T11:12:50;97325.50;;;14.27;73.59
18509;BME280;9383;50.928;12.116;2023-10-31T11:15:18;97324.78;;;14.25;74.16
18509;BME280;9383;50.928;12.116;2023-10-31T11:17:47;97318.72;;;14.23;74.52
18509;BME280;9383;50.928;12.116;2023-10-31T11:20:16;97330.59;;;14.18;74.74
18509;BME280;9383;50.928;12.116;2023-10-31T11:22:45;97340.34;;;14.06;73.01
18509;BME280;9383;50.928;12.116;2023-10-31T11:25:14;97336.81;;;13.95;73.67
18509;BME280;9383;50.928;12.116;2023-10-31T11:27:42;97342.69;;;13.87;73.95
18509;BME280;9383;50.928;12.116;2023-10-31T11:30:33;97341.84;;;13.86;74.88
18509;BME280;9383;50.928;12.116;2023-10-31T11:32:58;97349.44;;;13.79;75.12
18509;BME280;9383;50.928;12.116;2023-10-31T11:35:33;97362.13;;;13.76;75.51
18509;BME280;9383;50.928;12.116;2023-10-31T11:38:05;97360.41;;;13.75;76.36
18509;BME280;9383;50.928;12.116;2023-10-31T11:40:35;97364.91;;;13.74;76.61
18509;BME280;9383;50.928;12.116;2023-10-31T11:43:06;97369.59;;;13.71;76.41
18509;BME280;9383;50.928;12.116;2023-10-31T11:45:41;97372.28;;;13.71;76.82
18509;BME280;9383;50.928;12.116;2023-10-31T11:48:11;97375.78;;;13.71;77.32
18509;BME280;9383;50.928;12.116;2023-10-31T11:50:38;97374.94;;;13.71;77.27
18509;BME280;9383;50.928;12.116;2023-10-31T11:53:13;97379.75;;;13.66;77.25
18509;BME280;9383;50.928;12.116;2023-10-31T11:55:46;97380.91;;;13.61;77.60
18509;BME280;9383;50.928;12.116;2023-10-31T11:58:20;97381.88;;;13.60;78.01
18509;BME280;9383;50.928;12.116;2023-10-31T12:00:49;97390.94;;;13.58;78.12
18509;BME280;9383;50.928;12.116;2023-10-31T12:03:18;97390.19;;;13.56;78.53
18509;BME280;9383;50.928;12.116;2023-10-31T12:05:56;97403.66;;;13.54;78.46
18509;BME280;9383;50.928;12.116;2023-10-31T12:08:30;97404.72;;;13.52;78.61
18509;BME280;9383;50.928;12.116;2023-10-31T12:11:12;97411.09;;;13.49;79.17
18509;BME280;9383;50.928;12.116;2023-10-31T12:14:18;97420.34;;;13.43;79.70
18509;BME280;9383;50.928;12.116;2023-10-31T12:16:34;97420.78;;;13.37;80.03
18509;BME280;9383;50.928;12.116;2023-10-31T12:19:04;97413.03;;;13.34;80.54
18509;BME280;9383;50.928;12.116;2023-10-31T12:21:43;97428.34;;;13.30;81.01
18509;BME280;9383;50.928;12.116;2023-10-31T12:24:15;97426.00;;;13.26;81.22
18509;BME280;9383;50.928;12.116;2023-10-31T12:26:42;97436.00;;;13.22;81.97
18509;BME280;9383;50.928;12.116;2023-10-31T12:29:16;97443.34;;;13.18;82.32
18509;BME280;9383;50.928;12.116;2023-10-31T12:31:44;97436.78;;;13.11;82.78
18509;BME280;9383;50.928;12.116;2023-10-31T12:34:18;97437.41;;;13.02;83.11
18509;BME280;9383;50.928;12.116;2023-10-31T12:36:53;97428.91;;;12.97;83.42
18509;BME280;9383;50.928;12.116;2023-10-31T12:39:25;97428.34;;;12.91;83.59
18509;BME280;9383;50.928;12.116;2023-10-31T12:41:53;97427.72;;;12.88;83.90
18509;BME280;9383;50.928;12.116;2023-10-31T12:44:27;97439.53;;;12.84;84.02
18509;BME280;9383;50.928;12.116;2023-10-31T12:46:54;97431.88;;;12.79;84.23
18509;BME280;9383;50.928;12.116;2023-10-31T12:49:22;97434.84;;;12.74;84.45
18509;BME280;9383;50.928;12.116;2023-10-31T12:52:03;97430.59;;;12.72;84.66
18509;BME280;9383;50.928;12.116;2023-10-31T12:54:32;97429.94;;;12.68;85.18
18509;BME280;9383;50.928;12.116;2023-10-31T12:57:04;97431.97;;;12.64;85.45
18509;BME280;9383;50.928;12.116;2023-10-31T12:59:33;97435.66;;;12.62;85.76